Waddington, United Kingdom
Current Conditions -  °F | °C
As of 3:10 PM on Wednesday 26 Nov 2014 (Local Time) from EGXW Reporting Station
Drizzle Drizzle  
Wind Chill: 44°   Ceiling: 600
Heat Index: 46°   Visibility: 0.93mi
Dew Point: 45°   Wind: 6mph
Humidity: 93%   Direction: 40°NE
Pressure: 29.83"   Gusts: NA
Location:  53.17°N, 0.52°W
Report Text: EGXW 261510Z 04005KT 1500 -DZ FEW003 OVC006 08/07 Q1010 AMB TEMPO 0500 FG BKN000 RED
Loading
Personal Weather Stations






























Interactive Weather Map New forecast layout! Learn more

10-Day Weather Forecast

Advertisements
Track Severe Weather on mobile